Time;durP1;ratioP1;P1;durP2;ratioP2;P2;SDS_P1;SDS_P2;PMS_P1;PMS_P2;Temp;Humidity;BMP_temperature;BMP_pressure;BME280_temperature;BME280_humidity;BME280_pressure;Samples;Min_cycle;Max_cycle;Signal;HPM_P1;HPM_P2
2022/11/24 00:01:14;;;;;;;12.68;7.53;;;;;;;3.21;94.68;100169.10;1743760;82;27672;-63
2022/11/24 00:03:43;;;;;;;14.70;7.95;;;;;;;3.15;94.56;100169.53;1743347;81;25761;-60
2022/11/24 00:06:13;;;;;;;14.43;8.35;;;;;;;3.10;94.66;100165.36;1743602;82;25722;-60
2022/11/24 00:08:42;;;;;;;15.78;8.95;;;;;;;3.07;94.88;100155.41;1742706;81;26681;-61
2022/11/24 00:11:28;;;;;;;14.75;7.87;;;;;;;3.10;94.98;100153.89;1741348;82;25812;-60
2022/11/24 00:13:57;;;;;;;12.33;7.75;;;;;;;3.12;94.95;100153.31;1748319;81;27491;-60
2022/11/24 00:16:29;;;;;;;18.90;8.73;;;;;;;3.09;95.11;100169.45;1736442;82;25782;-60
2022/11/24 00:18:59;;;;;;;11.00;7.15;;;;;;;3.01;95.05;100173.95;1743340;81;25753;-60
2022/11/24 00:21:28;;;;;;;15.72;7.85;;;;;;;3.03;95.36;100179.17;1743765;81;26526;-60
2022/11/24 00:23:55;;;;;;;13.85;8.30;;;;;;;3.16;95.58;100175.22;1743464;82;25955;-60
2022/11/24 00:26:26;;;;;;;13.48;8.15;;;;;;;3.29;96.38;100178.73;1743519;81;27508;-61
2022/11/24 00:28:55;;;;;;;14.05;7.95;;;;;;;3.39;96.21;100174.99;1743268;81;25945;-60
2022/11/24 00:31:27;;;;;;;14.78;8.30;;;;;;;3.43;95.59;100172.02;1743602;81;25745;-60
2022/11/24 00:33:57;;;;;;;15.72;7.45;;;;;;;3.46;95.14;100166.97;1743380;81;25824;-61
2022/11/24 00:36:28;;;;;;;11.93;7.33;;;;;;;3.46;94.56;100168.30;1743457;81;25697;-61
2022/11/24 00:38:58;;;;;;;11.30;6.35;;;;;;;3.50;94.57;100168.93;1743656;81;27010;-61
2022/11/24 00:41:27;;;;;;;15.68;6.80;;;;;;;3.47;94.16;100175.32;1743564;82;25795;-61
2022/11/24 00:43:54;;;;;;;11.93;7.08;;;;;;;3.43;94.00;100189.30;1750791;80;25872;-61
2022/11/24 00:46:23;;;;;;;12.00;6.00;;;;;;;3.42;93.96;100198.23;1729468;82;25807;-61
2022/11/24 00:48:50;;;;;;;12.82;7.47;;;;;;;3.38;93.49;100196.73;1729861;82;25775;-60
2022/11/24 00:51:20;;;;;;;15.18;7.83;;;;;;;3.43;93.86;100199.08;1729970;82;27479;-60
2022/11/24 00:53:47;;;;;;;13.62;6.37;;;;;;;3.48;94.35;100200.09;1732631;82;25759;-60
2022/11/24 00:56:15;;;;;;;10.95;5.90;;;;;;;3.44;93.27;100200.32;1737099;81;26831;-60
2022/11/24 00:58:41;;;;;;;12.15;6.80;;;;;;;3.41;93.18;100202.30;1736901;82;26007;-60
2022/11/24 01:01:13;;;;;;;12.68;5.72;;;;;;;3.35;92.87;100190.31;1737183;82;25836;-60
2022/11/24 01:03:41;;;;;;;10.58;5.70;;;;;;;3.26;92.59;100200.23;1737172;82;27478;-60
2022/11/24 01:06:16;;;;;;;13.40;5.53;;;;;;;3.18;92.53;100207.38;1737057;82;25891;-60
2022/11/24 01:08:43;;;;;;;10.10;5.90;;;;;;;3.19;93.17;100209.09;1736746;82;25839;-61
2022/11/24 01:11:18;;;;;;;9.50;5.50;;;;;;;3.22;93.33;100212.02;1737030;82;25816;-61
2022/11/24 01:13:48;;;;;;;9.73;4.83;;;;;;;3.20;93.37;100192.19;1737133;82;25896;-61
2022/11/24 01:16:27;;;;;;;7.45;4.83;;;;;;;3.17;92.71;100187.56;1743899;81;29231;-61
2022/11/24 01:18:55;;;;;;;6.62;4.42;;;;;;;3.09;92.32;100188.06;1757587;81;25859;-61
2022/11/24 01:21:22;;;;;;;7.00;4.62;;;;;;;3.00;92.48;100189.55;1766989;81;26195;-60
2022/11/24 01:23:50;;;;;;;9.73;5.12;;;;;;;2.96;92.63;100184.04;1767168;80;26764;-61
2022/11/24 01:26:20;;;;;;;6.65;4.47;;;;;;;2.90;92.70;100184.45;1766952;81;25818;-60
2022/11/24 01:28:55;;;;;;;13.53;4.70;;;;;;;2.87;92.94;100181.50;1766793;81;27501;-61
2022/11/24 01:31:24;;;;;;;6.70;4.33;;;;;;;2.87;92.92;100184.65;1766998;81;25688;-60
2022/11/24 01:33:51;;;;;;;7.15;4.62;;;;;;;2.89;93.14;100182.75;1767353;81;25761;-61
2022/11/24 01:36:18;;;;;;;5.75;4.15;;;;;;;2.95;93.36;100175.69;1766885;81;25863;-61
2022/11/24 01:38:45;;;;;;;5.35;4.00;;;;;;;3.01;93.16;100173.95;1767219;81;26085;-61
2022/11/24 01:41:19;;;;;;;5.33;3.83;;;;;;;3.07;93.11;100176.67;1766821;80;27479;-60
2022/11/24 01:43:47;;;;;;;6.08;4.45;;;;;;;3.16;93.44;100174.73;1766950;80;25777;-61
2022/11/24 01:46:31;;;;;;;4.90;3.85;;;;;;;3.20;92.97;100174.05;1708029;82;25789;-60
2022/11/24 01:49:04;;;;;;;;;;;;;;;3.21;92.89;100180.61;1689373;82;25702;-61
2022/11/24 01:51:46;;;;;;;7.50;4.58;;;;;;;3.27;92.63;100174.02;1737341;82;25516;-61
2022/11/24 01:54:24;;;;;;;6.25;4.75;;;;;;;3.32;92.85;100172.38;1735788;82;27367;-61
2022/11/24 01:56:56;;;;;;;6.97;4.47;;;;;;;3.35;92.66;100178.34;1733666;82;25799;-60
2022/11/24 01:59:25;;;;;;;5.58;3.72;;;;;;;3.38;92.61;100173.29;1734493;82;25784;-60
2022/11/24 02:01:54;;;;;;;5.20;4.03;;;;;;;3.50;93.43;100178.23;1734635;82;25799;-60
2022/11/24 02:04:27;;;;;;;4.25;3.65;;;;;;;3.51;92.29;100179.95;1734960;82;25882;-61
2022/11/24 02:06:57;;;;;;;5.15;3.95;;;;;;;3.45;91.47;100184.70;1734572;82;27493;-60
2022/11/24 02:09:29;;;;;;;5.20;3.65;;;;;;;3.47;91.57;100189.08;1734462;81;25720;-60
2022/11/24 02:11:58;;;;;;;5.78;4.20;;;;;;;3.47;91.36;100191.73;1734497;82;25791;-61
2022/11/24 02:14:27;;;;;;;5.83;3.70;;;;;;;3.40;90.90;100199.30;1734980;82;25820;-60
2022/11/24 02:16:54;;;;;;;5.60;3.85;;;;;;;3.40;90.87;100186.84;1750613;81;25483;-61
2022/11/24 02:19:58;;;;;;;6.55;4.33;;;;;;;3.36;90.45;100186.66;1766880;81;27509;-61
2022/11/24 02:22:43;;;;;;;6.83;4.25;;;;;;;3.23;90.31;100180.00;1767129;81;25748;-60
2022/11/24 02:25:36;;;;;;;5.10;4.17;;;;;;;3.08;90.49;100187.68;1766842;80;36181;-61
2022/11/24 02:28:07;;;;;;;6.90;4.50;;;;;;;2.96;90.99;100189.35;1766896;81;28054;-61
2022/11/24 02:30:35;;;;;;;8.03;4.53;;;;;;;2.81;91.43;100192.08;1766771;81;25816;-60
2022/11/24 02:33:02;;;;;;;6.10;4.10;;;;;;;2.73;91.79;100200.16;1766875;80;28345;-60
2022/11/24 02:35:29;;;;;;;5.72;4.10;;;;;;;2.66;92.27;100199.23;1766922;81;25798;-61
2022/11/24 02:37:56;;;;;;;7.35;4.50;;;;;;;2.60;92.52;100186.34;1737134;81;25764;-60
2022/11/24 02:40:27;;;;;;;6.37;4.12;;;;;;;2.58;93.06;100196.69;1766769;80;26434;-60
2022/11/24 02:43:04;;;;;;;4.33;3.35;;;;;;;2.56;93.08;100193.27;1766835;80;25775;-61
2022/11/24 02:45:31;;;;;;;6.35;4.47;;;;;;;2.57;92.96;100202.95;1724335;80;27473;-61
2022/11/24 02:47:58;;;;;;;6.60;4.30;;;;;;;2.56;93.22;100209.20;1707787;82;26554;-61
2022/11/24 02:50:25;;;;;;;6.05;4.53;;;;;;;2.55;93.40;100207.53;1724094;82;25672;-60
2022/11/24 02:52:52;;;;;;;7.45;4.53;;;;;;;2.60;93.52;100208.07;1734486;82;25864;-61
2022/11/24 02:55:19;;;;;;;7.78;4.95;;;;;;;2.62;93.44;100208.83;1715259;82;25764;-60
2022/11/24 02:57:46;;;;;;;6.95;4.50;;;;;;;2.58;93.49;100198.89;1714799;83;27531;-61
2022/11/24 03:00:15;;;;;;;6.67;4.72;;;;;;;2.59;93.61;100206.36;1714682;83;25780;-60
2022/11/24 03:02:42;;;;;;;7.35;4.83;;;;;;;2.59;93.36;100214.33;1715182;82;25677;-61
2022/11/24 03:05:12;;;;;;;7.47;4.83;;;;;;;2.65;93.48;100220.56;1714829;82;25986;-60
2022/11/24 03:07:38;;;;;;;9.38;5.03;;;;;;;2.73;93.78;100220.08;1723800;80;25889;-60
2022/11/24 03:10:07;;;;;;;7.10;5.08;;;;;;;2.80;93.75;100223.58;1738444;81;27453;-61
2022/11/24 03:12:33;;;;;;;8.73;4.80;;;;;;;2.88;93.56;100217.74;1738600;81;25800;-60
2022/11/24 03:15:02;;;;;;;7.58;4.60;;;;;;;2.92;92.91;100211.30;1738397;82;25808;-61
2022/11/24 03:17:29;;;;;;;6.03;4.28;;;;;;;2.97;92.74;100214.48;1759553;81;25781;-61
2022/11/24 03:19:56;;;;;;;7.72;4.20;;;;;;;3.07;93.39;100213.42;1766657;80;25672;-61
2022/11/24 03:22:23;;;;;;;8.63;5.47;;;;;;;3.18;92.40;100207.88;1766905;81;27942;-60
2022/11/24 03:24:50;;;;;;;8.10;4.80;;;;;;;3.23;92.29;100207.91;1767005;81;25799;-60
2022/11/24 03:27:16;;;;;;;8.68;5.28;;;;;;;3.34;92.86;100216.98;1766969;80;25717;-61
2022/11/24 03:29:43;;;;;;;9.48;5.12;;;;;;;3.45;93.04;100229.08;1766855;81;25844;-61
2022/11/24 03:32:10;;;;;;;10.15;5.55;;;;;;;3.47;92.16;100217.87;1766998;81;25731;-60
2022/11/24 03:34:36;;;;;;;9.43;6.15;;;;;;;3.40;91.05;100220.08;1767118;80;28176;-60
2022/11/24 03:37:03;;;;;;;9.55;5.72;;;;;;;3.39;90.52;100224.19;1766935;81;25747;-60
2022/11/24 03:39:30;;;;;;;8.18;5.30;;;;;;;3.28;89.58;100218.23;1766952;81;25735;-60
2022/11/24 03:41:57;;;;;;;9.80;6.28;;;;;;;3.18;89.67;100211.86;1766749;80;26551;-60
2022/11/24 03:44:23;;;;;;;8.20;5.78;;;;;;;3.20;90.24;100213.91;1733149;82;25894;-61
2022/11/24 03:46:50;;;;;;;9.28;5.62;;;;;;;3.28;90.70;100211.59;1741314;82;27511;-61
2022/11/24 03:49:17;;;;;;;5.92;4.60;;;;;;;3.29;90.54;100218.61;1742362;81;25862;-61
2022/11/24 03:51:44;;;;;;;8.15;5.17;;;;;;;3.21;89.17;100229.78;1748483;82;26519;-61
2022/11/24 03:54:11;;;;;;;7.22;5.00;;;;;;;3.13;89.58;100227.63;1745669;79;25805;-61
2022/11/24 03:56:38;;;;;;;7.37;5.17;;;;;;;3.16;89.77;100246.98;1743449;82;25730;-61
2022/11/24 03:59:05;;;;;;;8.18;6.15;;;;;;;3.17;90.06;100251.35;1743721;82;27584;-61
2022/11/24 04:01:32;;;;;;;7.83;5.95;;;;;;;3.09;89.48;100248.70;1743257;81;26065;-61
2022/11/24 04:03:59;;;;;;;7.72;5.05;;;;;;;3.01;89.65;100243.52;1743592;82;25860;-61
2022/11/24 04:06:26;;;;;;;6.65;4.80;;;;;;;3.04;90.15;100241.52;1743445;82;25772;-61
2022/11/24 04:08:53;;;;;;;7.53;5.55;;;;;;;3.06;90.09;100244.94;1743866;81;25732;-61
2022/11/24 04:14:05;;;;;;;7.45;5.28;;;;;;;3.11;90.06;100250.78;1710071;83;25698;-61
2022/11/24 04:16:32;;;;;;;7.62;5.40;;;;;;;3.10;89.62;100250.41;1754643;80;25457;-61
2022/11/24 04:18:59;;;;;;;7.95;5.83;;;;;;;3.10;89.73;100253.55;1776144;80;25754;-60
2022/11/24 04:21:26;;;;;;;8.63;6.15;;;;;;;3.05;89.70;100248.54;1776079;80;25757;-60
2022/11/24 04:23:53;;;;;;;10.13;6.62;;;;;;;3.06;89.81;100255.56;1776197;80;27472;-60
2022/11/24 04:26:19;;;;;;;10.05;5.95;;;;;;;3.11;90.29;100253.93;1776215;80;25830;-60
2022/11/24 04:28:46;;;;;;;9.30;5.85;;;;;;;3.19;90.48;100254.73;1776248;80;26248;-60
2022/11/24 04:31:13;;;;;;;9.50;6.17;;;;;;;3.29;90.23;100253.17;1775941;80;25744;-60
2022/11/24 04:33:40;;;;;;;9.25;5.60;;;;;;;3.33;90.14;100269.31;1776173;80;25895;-60
2022/11/24 04:36:08;;;;;;;7.83;5.50;;;;;;;3.37;90.18;100260.16;1775773;80;27431;-60
2022/11/24 04:38:34;;;;;;;9.53;5.58;;;;;;;3.50;91.00;100262.01;1776157;80;25789;-60
2022/11/24 04:41:02;;;;;;;7.62;4.97;;;;;;;3.59;91.07;100263.56;1776345;80;25725;-61
2022/11/24 04:43:31;;;;;;;7.58;4.65;;;;;;;3.69;90.88;100267.80;1775945;80;26691;-60
2022/11/24 04:46:01;;;;;;;6.25;4.35;;;;;;;3.72;89.77;100262.73;1713520;80;25820;-60
2022/11/24 04:48:28;;;;;;;7.90;4.92;;;;;;;3.78;90.22;100265.46;1708434;83;28236;-60
2022/11/24 04:50:55;;;;;;;8.90;5.15;;;;;;;3.81;89.86;100266.59;1729278;82;25736;-60
2022/11/24 04:53:22;;;;;;;8.08;5.97;;;;;;;3.68;88.30;100274.06;1731715;82;25519;-60
2022/11/24 04:55:49;;;;;;;8.58;5.40;;;;;;;3.50;87.47;100276.14;1732512;82;25724;-60
2022/11/24 04:58:17;;;;;;;11.75;5.80;;;;;;;3.33;87.76;100274.63;1732247;82;26475;-60
2022/11/24 05:00:43;;;;;;;9.43;6.40;;;;;;;3.38;89.04;100283.14;1732392;82;27530;-60
2022/11/24 05:03:10;;;;;;;9.13;6.20;;;;;;;3.49;89.77;100278.92;1731971;82;25781;-60
2022/11/24 05:05:37;;;;;;;10.18;6.53;;;;;;;3.57;89.62;100289.44;1732421;82;25852;-60
2022/11/24 05:08:04;;;;;;;8.50;6.05;;;;;;;3.59;89.20;100281.34;1756001;81;25816;-60
2022/11/24 05:10:34;;;;;;;8.40;5.72;;;;;;;3.63;89.15;100295.28;1759110;81;25826;-60
2022/11/24 05:13:12;;;;;;;16.12;10.75;;;;;;;3.64;88.85;100296.99;1759019;81;28823;-60
2022/11/24 05:15:41;;;;;;;13.45;8.65;;;;;;;3.56;87.86;100294.84;1749463;81;25958;-60
2022/11/24 05:18:12;;;;;;;12.63;6.83;;;;;;;3.45;87.81;100299.05;1720956;82;25724;-61
2022/11/24 05:20:39;;;;;;;8.68;6.00;;;;;;;3.51;88.61;100299.62;1719545;82;25747;-60
2022/11/24 05:23:07;;;;;;;9.50;5.95;;;;;;;3.60;89.27;100297.67;1721477;82;25790;-60
2022/11/24 05:25:35;;;;;;;9.88;5.12;;;;;;;3.71;88.98;100304.92;1719210;82;28178;-59
2022/11/24 05:28:03;;;;;;;9.58;5.72;;;;;;;3.69;87.92;100311.69;1719157;82;25775;-60
2022/11/24 05:30:31;;;;;;;12.03;8.13;;;;;;;3.69;88.12;100309.48;1727822;82;25513;-60
2022/11/24 05:32:58;;;;;;;12.95;8.28;;;;;;;3.69;87.99;100312.15;1728151;82;25776;-60
2022/11/24 05:35:25;;;;;;;10.25;6.22;;;;;;;3.68;88.06;100305.99;1732617;82;25794;-59
2022/11/24 05:37:52;;;;;;;9.90;6.50;;;;;;;3.71;88.31;100314.23;1732103;82;27496;-60
2022/11/24 05:40:21;;;;;;;14.07;6.80;;;;;;;3.76;88.85;100313.47;1732863;82;25866;-60
2022/11/24 05:42:47;;;;;;;14.75;8.58;;;;;;;3.75;87.86;100318.41;1731682;82;25767;-60
2022/11/24 05:45:20;;;;;;;12.23;7.87;;;;;;;3.71;87.87;100320.42;1715437;82;26200;-60
2022/11/24 05:47:49;;;;;;;12.10;7.35;;;;;;;3.70;87.75;100324.50;1705568;82;25778;-60
2022/11/24 05:50:18;;;;;;;10.00;6.30;;;;;;;3.76;88.19;100329.43;1720751;81;28471;-60
2022/11/24 05:52:46;;;;;;;10.93;7.10;;;;;;;3.80;88.13;100328.74;1729306;82;25904;-60
2022/11/24 05:55:15;;;;;;;10.70;7.03;;;;;;;3.79;87.18;100327.88;1708428;83;26462;-59
2022/11/24 05:57:42;;;;;;;12.70;7.45;;;;;;;3.76;87.33;100334.26;1709484;82;26475;-60
2022/11/24 06:00:11;;;;;;;12.98;7.47;;;;;;;3.73;86.70;100334.45;1709006;83;27427;-60
2022/11/24 06:02:41;;;;;;;13.28;8.53;;;;;;;3.69;86.63;100335.63;1708773;82;27441;-60
2022/11/24 06:05:08;;;;;;;13.83;8.25;;;;;;;3.66;86.69;100342.97;1708409;82;25956;-60
2022/11/24 06:07:35;;;;;;;13.65;7.95;;;;;;;3.64;87.08;100351.52;1709038;82;25765;-60
2022/11/24 06:10:03;;;;;;;12.73;7.75;;;;;;;3.68;87.11;100345.89;1711723;82;26260;-60
2022/11/24 06:12:30;;;;;;;15.28;8.38;;;;;;;3.61;86.89;100353.91;1708976;83;25753;-60
2022/11/24 06:14:57;;;;;;;15.30;8.38;;;;;;;3.64;87.59;100363.49;1709050;83;27477;-60
2022/11/24 06:17:24;;;;;;;13.58;8.08;;;;;;;3.66;87.64;100366.42;1727086;81;25792;-60
2022/11/24 06:19:51;;;;;;;13.85;7.35;;;;;;;3.68;87.36;100368.97;1733773;81;25719;-60
2022/11/24 06:22:18;;;;;;;11.78;6.97;;;;;;;3.65;87.32;100363.38;1733840;82;28013;-60
2022/11/24 06:24:45;;;;;;;10.48;6.80;;;;;;;3.61;86.70;100368.55;1733612;82;25756;-60
2022/11/24 06:27:13;;;;;;;19.05;9.10;;;;;;;3.52;86.60;100376.64;1734091;82;28217;-60
2022/11/24 06:29:40;;;;;;;11.60;7.55;;;;;;;3.56;87.26;100375.50;1733442;81;25880;-60
2022/11/24 06:32:08;;;;;;;13.62;8.03;;;;;;;3.62;87.72;100378.23;1733514;81;25779;-60
2022/11/24 06:34:35;;;;;;;12.40;7.83;;;;;;;3.68;88.05;100379.61;1733521;82;26592;-60
2022/11/24 06:37:02;;;;;;;11.68;7.33;;;;;;;3.69;87.73;100388.84;1726370;82;25804;-60
2022/11/24 06:39:29;;;;;;;14.30;8.03;;;;;;;3.70;87.27;100387.02;1725305;82;27507;-60
2022/11/24 06:41:57;;;;;;;11.35;7.50;;;;;;;3.75;87.67;100383.10;1724513;82;26371;-60
2022/11/24 06:44:24;;;;;;;12.98;7.03;;;;;;;3.76;87.26;100388.80;1722750;82;25907;-61
2022/11/24 06:46:50;;;;;;;13.83;7.35;;;;;;;3.78;87.21;100391.84;1721349;82;26454;-60
2022/11/24 06:49:17;;;;;;;247.95;34.85;;;;;;;3.81;87.30;100393.82;1722988;81;26465;-60
2022/11/24 06:51:44;;;;;;;80.10;14.23;;;;;;;3.89;87.69;100395.98;1720373;82;28548;-60
2022/11/24 06:54:19;;;;;;;16.40;8.05;;;;;;;3.94;87.13;100391.19;1724116;82;25820;-60
2022/11/24 06:56:47;;;;;;;11.97;7.83;;;;;;;3.94;86.64;100396.52;1725451;82;25792;-60
2022/11/24 06:59:19;;;;;;;18.10;8.23;;;;;;;3.94;86.55;100393.02;1711476;82;25785;-61
2022/11/24 07:01:46;;;;;;;19.95;7.22;;;;;;;3.94;86.67;100393.02;1732703;82;25808;-61
2022/11/24 07:04:14;;;;;;;10.28;6.80;;;;;;;3.97;86.81;100398.11;1732690;82;27460;-60
2022/11/24 07:06:42;;;;;;;9.45;5.67;;;;;;;3.96;86.13;100398.60;1732464;82;25909;-61
2022/11/24 07:09:11;;;;;;;10.60;6.58;;;;;;;3.93;86.05;100402.79;1732725;82;25909;-60
2022/11/24 07:11:39;;;;;;;14.35;8.75;;;;;;;3.94;86.04;100400.50;1723361;81;25844;-61
2022/11/24 07:14:06;;;;;;;11.20;6.55;;;;;;;3.93;86.10;100400.62;1756812;81;25784;-60
2022/11/24 07:16:33;;;;;;;12.33;7.62;;;;;;;3.93;86.11;100398.80;1755987;81;27392;-60
2022/11/24 07:19:01;;;;;;;14.05;8.30;;;;;;;3.91;85.95;100404.69;1756867;80;25654;-61
2022/11/24 07:21:29;;;;;;;11.43;7.37;;;;;;;3.90;86.10;100401.19;1756537;81;25764;-61
2022/11/24 07:23:57;;;;;;;16.73;8.60;;;;;;;3.88;85.48;100397.77;1756938;81;26508;-61
2022/11/24 07:26:24;;;;;;;12.78;8.08;;;;;;;3.84;85.19;100406.93;1756417;81;25726;-61
2022/11/24 07:28:51;;;;;;;16.37;8.05;;;;;;;3.78;84.89;100404.66;1756831;81;28209;-60
2022/11/24 07:31:23;;;;;;;15.45;8.63;;;;;;;3.75;84.87;100404.88;1756562;81;25653;-60
2022/11/24 07:33:54;;;;;;;11.35;7.78;;;;;;;3.71;85.03;100409.55;1756445;81;25498;-61
2022/11/24 07:36:22;;;;;;;17.05;9.05;;;;;;;3.65;84.96;100409.94;1756587;81;25867;-61
2022/11/24 07:38:50;;;;;;;15.58;8.40;;;;;;;3.62;84.88;100413.27;1721014;81;25726;-60
2022/11/24 07:41:19;;;;;;;13.38;7.62;;;;;;;3.57;84.69;100410.91;1718603;83;26756;-60
2022/11/24 07:43:47;;;;;;;15.15;8.55;;;;;;;3.53;84.62;100410.27;1722936;82;26208;-61
2022/11/24 07:46:17;;;;;;;14.43;8.28;;;;;;;3.52;84.81;100418.35;1708961;83;25712;-60
2022/11/24 07:48:45;;;;;;;13.38;8.18;;;;;;;3.49;84.74;100421.20;1708734;83;25889;-61
2022/11/24 07:51:12;;;;;;;12.63;8.10;;;;;;;3.49;85.04;100418.54;1710201;81;25802;-60
2022/11/24 07:53:39;;;;;;;12.05;6.55;;;;;;;3.52;85.10;100421.01;1722486;82;27469;-60
2022/11/24 07:56:08;;;;;;;15.78;7.83;;;;;;;3.51;85.05;100419.30;1738362;82;27239;-61
2022/11/24 07:58:36;;;;;;;14.30;7.62;;;;;;;3.50;85.18;100435.72;1738621;82;25796;-61
2022/11/24 08:01:16;;;;;;;13.72;7.80;;;;;;;3.55;85.39;100438.08;1738729;82;26352;-61
2022/11/24 08:03:45;;;;;;;14.90;9.00;;;;;;;3.47;84.60;100438.59;1738626;81;26105;-60
2022/11/24 08:06:14;;;;;;;16.05;9.33;;;;;;;3.45;84.91;100442.66;1738409;81;27452;-61
2022/11/24 08:08:40;;;;;;;18.00;10.55;;;;;;;3.39;84.38;100448.88;1738390;82;25838;-60
2022/11/24 08:11:12;;;;;;;14.73;8.35;;;;;;;3.31;84.06;100447.18;1729372;81;25867;-61
2022/11/24 08:13:39;;;;;;;14.70;8.40;;;;;;;3.14;83.61;100449.07;1750417;81;25838;-61
2022/11/24 08:16:09;;;;;;;21.15;9.90;;;;;;;3.05;84.18;100443.87;1743877;81;25828;-60
2022/11/24 08:18:37;;;;;;;12.25;7.55;;;;;;;2.94;84.36;100442.34;1712171;83;27647;-60
2022/11/24 08:21:06;;;;;;;15.13;6.58;;;;;;;2.90;84.68;100444.83;1700542;83;25975;-60
2022/11/24 08:23:33;;;;;;;9.68;6.17;;;;;;;3.00;85.32;100444.64;1703293;83;25730;-61
2022/11/24 08:26:12;;;;;;;9.48;5.58;;;;;;;3.13;85.80;100444.24;1710240;83;26489;-60
2022/11/24 08:28:39;;;;;;;8.58;5.40;;;;;;;3.25;85.87;100451.91;1678867;85;25784;-61
2022/11/24 08:31:10;;;;;;;10.90;6.25;;;;;;;3.33;85.38;100450.11;1679670;85;28293;-60
2022/11/24 08:33:38;;;;;;;9.75;6.08;;;;;;;3.36;85.41;100450.38;1678929;85;26448;-60
2022/11/24 08:36:09;;;;;;;13.85;8.30;;;;;;;3.38;85.40;100459.97;1686329;84;25889;-60
2022/11/24 08:38:36;;;;;;;12.45;6.67;;;;;;;3.44;85.31;100465.38;1689814;83;25800;-61
2022/11/24 08:41:06;;;;;;;11.57;6.70;;;;;;;3.32;83.90;100461.70;1699967;84;25775;-61
2022/11/24 08:43:33;;;;;;;9.48;5.62;;;;;;;3.08;83.51;100457.44;1699558;83;27480;-60
2022/11/24 08:46:03;;;;;;;8.78;5.35;;;;;;;3.11;84.52;100458.09;1704146;83;26551;-60
2022/11/24 08:48:30;;;;;;;7.87;5.00;;;;;;;3.17;84.69;100465.33;1705842;84;26276;-61
2022/11/24 08:51:00;;;;;;;7.28;4.62;;;;;;;3.27;85.16;100465.13;1694106;82;26519;-61
2022/11/24 08:53:27;;;;;;;7.45;4.62;;;;;;;3.38;84.68;100467.94;1708192;81;25799;-61
2022/11/24 08:55:58;;;;;;;10.72;6.05;;;;;;;3.39;84.28;100464.34;1703000;82;27471;-60
2022/11/24 08:58:27;;;;;;;6.85;4.78;;;;;;;3.37;84.51;100464.91;1702042;83;25832;-60
2022/11/24 09:00:53;;;;;;;8.65;5.37;;;;;;;3.44;84.03;100465.38;1701538;84;25756;-61
2022/11/24 09:03:20;;;;;;;9.45;5.70;;;;;;;3.45;84.37;100464.42;1701509;82;25881;-61
2022/11/24 09:05:48;;;;;;;8.58;5.33;;;;;;;3.49;83.97;100462.42;1697536;83;25817;-61
2022/11/24 09:08:14;;;;;;;8.08;5.17;;;;;;;3.48;83.54;100459.38;1704272;82;27672;-61
2022/11/24 09:10:41;;;;;;;8.05;5.22;;;;;;;3.43;83.05;100464.53;1693857;82;25946;-61
2022/11/24 09:13:08;;;;;;;9.35;5.00;;;;;;;3.43;83.44;100468.98;1689849;83;25757;-61
2022/11/24 09:15:36;;;;;;;4.92;3.80;;;;;;;3.47;83.58;100470.51;1705007;83;25866;-61
2022/11/24 09:18:03;;;;;;;6.55;3.70;;;;;;;3.44;83.53;100464.92;1705038;83;25789;-61
2022/11/24 09:20:30;;;;;;;6.03;4.33;;;;;;;3.45;83.37;100469.74;1702144;83;28058;-61
2022/11/24 09:22:56;;;;;;;6.75;4.28;;;;;;;3.48;83.73;100467.36;1700855;84;27351;-61
2022/11/24 09:25:23;;;;;;;5.97;3.80;;;;;;;3.56;84.16;100467.72;1683858;84;26083;-61
2022/11/24 09:27:50;;;;;;;5.75;4.20;;;;;;;3.62;84.13;100464.69;1693723;83;26246;-61
2022/11/24 09:30:17;;;;;;;6.12;3.65;;;;;;;3.68;83.96;100465.61;1695308;83;25835;-61
2022/11/24 09:32:44;;;;;;;7.75;4.15;;;;;;;3.72;83.80;100475.08;1706221;84;27474;-61
2022/11/24 09:35:11;;;;;;;9.53;4.83;;;;;;;3.75;83.51;100471.39;1708026;84;25839;-62
2022/11/24 09:37:37;;;;;;;5.80;4.12;;;;;;;3.70;82.81;100479.67;1703032;83;25750;-62
2022/11/24 09:40:08;;;;;;;6.35;4.65;;;;;;;3.63;82.22;100474.34;1703685;84;25801;-61
2022/11/24 09:42:59;;;;;;;8.28;4.78;;;;;;;3.60;82.58;100475.41;1706287;84;25853;-61
2022/11/24 09:45:39;;;;;;;7.22;4.12;;;;;;;3.57;82.19;100480.06;1706642;83;28102;-61
2022/11/24 09:48:24;;;;;;;6.70;4.10;;;;;;;3.48;82.01;100480.20;1706261;84;25869;-61
2022/11/24 09:50:52;;;;;;;6.78;3.95;;;;;;;3.52;82.56;100473.72;1705942;82;25785;-61
2022/11/24 09:53:52;;;;;;;6.58;4.25;;;;;;;3.55;82.61;100481.97;1702857;84;26535;-61
2022/11/24 09:56:27;;;;;;;8.23;4.25;;;;;;;3.57;82.44;100482.73;1705038;84;25857;-61
2022/11/24 09:59:02;;;;;;;9.23;6.37;;;;;;;3.57;82.53;100476.95;1721643;82;28141;-61
2022/11/24 10:01:33;;;;;;;8.70;5.35;;;;;;;3.56;82.50;100481.02;1701387;84;25769;-61
2022/11/24 10:04:01;;;;;;;6.95;5.05;;;;;;;3.57;82.53;100482.73;1701513;84;25840;-61
2022/11/24 10:06:37;;;;;;;6.85;4.25;;;;;;;3.53;82.33;100476.75;1705463;83;25729;-61
2022/11/24 10:09:37;;;;;;;6.92;4.45;;;;;;;3.45;81.91;100477.72;1705143;82;25732;-61
2022/11/24 10:12:18;;;;;;;5.95;3.77;;;;;;;3.25;81.79;100469.20;1679568;84;27612;-61
2022/11/24 10:15:23;;;;;;;4.75;3.52;;;;;;;3.17;82.28;100476.80;1702455;83;25991;-61
2022/11/24 10:18:14;;;;;;;3.83;3.05;;;;;;;3.25;82.74;100478.50;1701449;83;25825;-61
2022/11/24 10:21:08;;;;;;;5.33;3.52;;;;;;;3.32;83.10;100485.63;1700505;83;26070;-61
2022/11/24 10:24:21;;;;;;;8.68;4.03;;;;;;;3.39;83.31;100486.94;1701695;83;26139;-61
2022/11/24 10:27:14;;;;;;;4.83;3.65;;;;;;;3.43;83.34;100481.81;1701854;84;27499;-61
2022/11/24 10:29:42;;;;;;;8.50;4.55;;;;;;;3.49;83.57;100486.36;1700526;83;25850;-60
2022/11/24 10:32:26;;;;;;;8.90;4.10;;;;;;;3.54;83.58;100481.13;1707395;82;25843;-60
2022/11/24 10:34:57;;;;;;;6.83;4.00;;;;;;;3.54;83.23;100477.14;1708019;83;25894;-61
2022/11/24 10:37:37;;;;;;;8.70;4.50;;;;;;;3.57;83.28;100486.27;1709558;83;25747;-60
2022/11/24 10:40:18;;;;;;;11.08;4.30;;;;;;;3.55;82.77;100486.83;1704491;84;27486;-61
2022/11/24 10:42:47;;;;;;;5.65;3.67;;;;;;;3.59;83.14;100481.67;1706645;83;25681;-60
2022/11/24 10:45:18;;;;;;;5.90;4.22;;;;;;;3.71;83.54;100481.84;1712347;82;25757;-60
2022/11/24 10:47:45;;;;;;;6.97;4.65;;;;;;;3.82;83.64;100478.48;1688279;83;25914;-60
2022/11/24 10:50:30;;;;;;;10.63;6.15;;;;;;;3.89;83.58;100472.66;1703373;82;25815;-61
2022/11/24 10:53:06;;;;;;;6.33;4.55;;;;;;;3.86;82.79;100476.84;1709259;82;27490;-60
2022/11/24 10:55:58;;;;;;;14.33;8.18;;;;;;;3.83;82.38;100478.40;1688898;84;26500;-60
2022/11/24 10:58:37;;;;;;;10.25;6.47;;;;;;;3.78;82.35;100479.65;1704704;84;25741;-60
2022/11/24 11:01:21;;;;;;;9.35;4.87;;;;;;;3.80;82.72;100477.75;1705999;84;25829;-61
2022/11/24 11:03:55;;;;;;;8.00;4.15;;;;;;;3.77;82.27;100473.45;1684246;84;25802;-60
2022/11/24 11:06:28;;;;;;;6.00;4.72;;;;;;;3.75;82.42;100466.91;1706246;84;27492;-61
2022/11/24 11:09:19;;;;;;;5.45;4.25;;;;;;;3.82;82.75;100466.50;1704744;82;25784;-61
2022/11/24 11:11:48;;;;;;;6.00;4.05;;;;;;;3.83;82.65;100465.09;1707683;84;25768;-60
2022/11/24 11:14:34;;;;;;;7.90;4.30;;;;;;;3.88;82.13;100467.45;1707883;84;26559;-61
2022/11/24 11:17:02;;;;;;;6.95;4.55;;;;;;;3.88;81.69;100466.12;1703281;83;25744;-61
2022/11/24 11:19:39;;;;;;;6.97;4.25;;;;;;;3.86;81.68;100460.05;1705387;83;27515;-60
2022/11/24 11:22:24;;;;;;;5.67;3.75;;;;;;;3.81;81.39;100459.02;1705947;83;26252;-60
2022/11/24 11:25:12;;;;;;;;;;;;;;;3.77;81.68;100456.16;1707850;83;25765;-60
2022/11/24 11:27:40;;;;;;;7.20;4.55;;;;;;;3.77;81.98;100458.82;1708866;83;25907;-61
2022/11/24 11:30:22;;;;;;;7.53;4.65;;;;;;;3.78;81.73;100461.02;1702168;84;25805;-61
2022/11/24 11:32:56;;;;;;;10.35;5.62;;;;;;;3.76;81.75;100457.14;1701865;83;28166;-62
2022/11/24 11:35:32;;;;;;;8.88;4.40;;;;;;;3.74;81.98;100455.89;1701979;84;25758;-61
2022/11/24 11:38:02;;;;;;;8.15;5.05;;;;;;;3.76;82.05;100462.46;1701072;83;25698;-62
2022/11/24 11:40:31;;;;;;;7.70;5.67;;;;;;;3.78;82.39;100462.35;1701387;84;25885;-61
2022/11/24 11:43:18;;;;;;;7.62;4.80;;;;;;;3.68;81.55;100453.64;1701625;83;25773;-60
2022/11/24 11:45:49;;;;;;;6.75;4.85;;;;;;;3.68;82.05;100458.09;1709839;83;28200;-61
2022/11/24 11:48:23;;;;;;;9.38;5.35;;;;;;;3.71;82.40;100454.78;1706215;83;25802;-61